sensor_id;sensor_type;location;lat;lon;timestamp;P1;durP1;ratioP1;P2;durP2;ratioP2
57561;SDS011;43397;51.530;5.974;2022-12-18T00:00:55;57.45;;;29.60;;
57561;SDS011;43397;51.530;5.974;2022-12-18T00:03:20;56.50;;;31.30;;
57561;SDS011;43397;51.530;5.974;2022-12-18T00:05:47;56.25;;;31.23;;
57561;SDS011;43397;51.530;5.974;2022-12-18T00:08:13;51.20;;;29.55;;
57561;SDS011;43397;51.530;5.974;2022-12-18T00:10:40;50.72;;;29.25;;
57561;SDS011;43397;51.530;5.974;2022-12-18T00:13:06;51.65;;;29.10;;
57561;SDS011;43397;51.530;5.974;2022-12-18T00:15:32;53.85;;;28.65;;
57561;SDS011;43397;51.530;5.974;2022-12-18T00:17:58;46.42;;;26.40;;
57561;SDS011;43397;51.530;5.974;2022-12-18T00:20:24;44.47;;;25.40;;
57561;SDS011;43397;51.530;5.974;2022-12-18T00:22:50;49.72;;;27.02;;
57561;SDS011;43397;51.530;5.974;2022-12-18T00:25:15;52.65;;;28.30;;
57561;SDS011;43397;51.530;5.974;2022-12-18T00:27:42;44.35;;;26.13;;
57561;SDS011;43397;51.530;5.974;2022-12-18T00:30:09;49.08;;;29.25;;
57561;SDS011;43397;51.530;5.974;2022-12-18T00:32:35;47.22;;;26.65;;
57561;SDS011;43397;51.530;5.974;2022-12-18T00:35:01;48.05;;;26.88;;
57561;SDS011;43397;51.530;5.974;2022-12-18T00:37:26;44.47;;;26.27;;
57561;SDS011;43397;51.530;5.974;2022-12-18T00:39:52;45.83;;;27.65;;
57561;SDS011;43397;51.530;5.974;2022-12-18T00:42:18;47.33;;;27.58;;
57561;SDS011;43397;51.530;5.974;2022-12-18T00:44:45;47.60;;;28.67;;
57561;SDS011;43397;51.530;5.974;2022-12-18T00:47:10;46.47;;;28.02;;
57561;SDS011;43397;51.530;5.974;2022-12-18T00:49:36;48.40;;;27.40;;
57561;SDS011;43397;51.530;5.974;2022-12-18T00:52:02;51.78;;;28.85;;
57561;SDS011;43397;51.530;5.974;2022-12-18T00:54:28;47.13;;;27.67;;
57561;SDS011;43397;51.530;5.974;2022-12-18T00:56:53;43.47;;;26.30;;
57561;SDS011;43397;51.530;5.974;2022-12-18T00:59:19;47.10;;;26.83;;
57561;SDS011;43397;51.530;5.974;2022-12-18T01:01:46;45.20;;;26.55;;
57561;SDS011;43397;51.530;5.974;2022-12-18T01:04:12;45.08;;;26.60;;
57561;SDS011;43397;51.530;5.974;2022-12-18T01:06:38;50.20;;;27.48;;
57561;SDS011;43397;51.530;5.974;2022-12-18T01:09:03;45.63;;;27.40;;
57561;SDS011;43397;51.530;5.974;2022-12-18T01:11:29;49.03;;;30.20;;
57561;SDS011;43397;51.530;5.974;2022-12-18T01:13:55;43.58;;;26.67;;
57561;SDS011;43397;51.530;5.974;2022-12-18T01:16:22;48.38;;;28.35;;
57561;SDS011;43397;51.530;5.974;2022-12-18T01:18:51;48.55;;;25.55;;
57561;SDS011;43397;51.530;5.974;2022-12-18T01:21:17;51.13;;;25.67;;
57561;SDS011;43397;51.530;5.974;2022-12-18T01:23:43;43.42;;;25.20;;
57561;SDS011;43397;51.530;5.974;2022-12-18T01:26:09;52.33;;;27.40;;
57561;SDS011;43397;51.530;5.974;2022-12-18T01:28:38;42.35;;;24.02;;
57561;SDS011;43397;51.530;5.974;2022-12-18T01:31:13;45.95;;;27.55;;
57561;SDS011;43397;51.530;5.974;2022-12-18T01:33:41;42.38;;;26.48;;
57561;SDS011;43397;51.530;5.974;2022-12-18T01:36:13;44.50;;;26.45;;
57561;SDS011;43397;51.530;5.974;2022-12-18T01:38:40;43.38;;;24.30;;
57561;SDS011;43397;51.530;5.974;2022-12-18T01:41:05;43.47;;;25.15;;
57561;SDS011;43397;51.530;5.974;2022-12-18T01:43:40;40.33;;;24.67;;
57561;SDS011;43397;51.530;5.974;2022-12-18T01:46:07;44.25;;;25.83;;
57561;SDS011;43397;51.530;5.974;2022-12-18T01:48:33;43.67;;;27.08;;
57561;SDS011;43397;51.530;5.974;2022-12-18T01:50:59;44.53;;;25.65;;
57561;SDS011;43397;51.530;5.974;2022-12-18T01:53:26;41.25;;;23.85;;
57561;SDS011;43397;51.530;5.974;2022-12-18T01:55:53;44.15;;;24.83;;
57561;SDS011;43397;51.530;5.974;2022-12-18T01:58:22;42.15;;;26.13;;
57561;SDS011;43397;51.530;5.974;2022-12-18T02:00:53;40.42;;;22.85;;
57561;SDS011;43397;51.530;5.974;2022-12-18T02:03:19;40.38;;;24.58;;
57561;SDS011;43397;51.530;5.974;2022-12-18T02:05:46;39.75;;;24.00;;
57561;SDS011;43397;51.530;5.974;2022-12-18T02:08:16;41.90;;;24.55;;
57561;SDS011;43397;51.530;5.974;2022-12-18T02:10:48;35.15;;;21.60;;
57561;SDS011;43397;51.530;5.974;2022-12-18T02:13:23;42.75;;;24.67;;
57561;SDS011;43397;51.530;5.974;2022-12-18T02:15:57;44.42;;;24.45;;
57561;SDS011;43397;51.530;5.974;2022-12-18T02:18:28;44.03;;;24.90;;
57561;SDS011;43397;51.530;5.974;2022-12-18T02:20:59;45.75;;;24.80;;
57561;SDS011;43397;51.530;5.974;2022-12-18T02:23:38;43.85;;;25.10;;
57561;SDS011;43397;51.530;5.974;2022-12-18T02:26:15;39.72;;;23.77;;
57561;SDS011;43397;51.530;5.974;2022-12-18T02:28:45;39.30;;;24.67;;
57561;SDS011;43397;51.530;5.974;2022-12-18T02:31:14;33.80;;;21.88;;
57561;SDS011;43397;51.530;5.974;2022-12-18T02:33:45;32.30;;;21.05;;
57561;SDS011;43397;51.530;5.974;2022-12-18T02:36:12;44.72;;;25.25;;
57561;SDS011;43397;51.530;5.974;2022-12-18T02:38:40;34.58;;;21.48;;
57561;SDS011;43397;51.530;5.974;2022-12-18T02:41:07;36.65;;;23.23;;
57561;SDS011;43397;51.530;5.974;2022-12-18T02:43:35;37.13;;;21.65;;
57561;SDS011;43397;51.530;5.974;2022-12-18T02:46:00;41.47;;;24.25;;
57561;SDS011;43397;51.530;5.974;2022-12-18T02:48:51;35.22;;;22.35;;
57561;SDS011;43397;51.530;5.974;2022-12-18T02:51:23;41.13;;;22.63;;
57561;SDS011;43397;51.530;5.974;2022-12-18T02:53:56;42.38;;;22.48;;
57561;SDS011;43397;51.530;5.974;2022-12-18T02:56:28;41.83;;;22.92;;
57561;SDS011;43397;51.530;5.974;2022-12-18T02:59:02;37.22;;;22.88;;
57561;SDS011;43397;51.530;5.974;2022-12-18T03:01:33;40.85;;;23.95;;
57561;SDS011;43397;51.530;5.974;2022-12-18T03:04:04;37.70;;;21.80;;
57561;SDS011;43397;51.530;5.974;2022-12-18T03:06:38;36.20;;;22.73;;
57561;SDS011;43397;51.530;5.974;2022-12-18T03:09:07;35.92;;;22.33;;
57561;SDS011;43397;51.530;5.974;2022-12-18T03:11:36;36.08;;;21.42;;
57561;SDS011;43397;51.530;5.974;2022-12-18T03:14:07;35.15;;;20.65;;
57561;SDS011;43397;51.530;5.974;2022-12-18T03:16:34;33.75;;;22.67;;
57561;SDS011;43397;51.530;5.974;2022-12-18T03:19:02;38.10;;;22.35;;
57561;SDS011;43397;51.530;5.974;2022-12-18T03:21:32;37.72;;;21.60;;
57561;SDS011;43397;51.530;5.974;2022-12-18T03:24:00;32.92;;;21.60;;
57561;SDS011;43397;51.530;5.974;2022-12-18T03:26:31;32.00;;;21.10;;
57561;SDS011;43397;51.530;5.974;2022-12-18T03:28:59;38.88;;;22.40;;
57561;SDS011;43397;51.530;5.974;2022-12-18T03:31:30;37.00;;;20.17;;
57561;SDS011;43397;51.530;5.974;2022-12-18T03:33:57;33.85;;;21.38;;
57561;SDS011;43397;51.530;5.974;2022-12-18T03:36:25;35.03;;;21.00;;
57561;SDS011;43397;51.530;5.974;2022-12-18T03:38:52;35.22;;;21.33;;
57561;SDS011;43397;51.530;5.974;2022-12-18T03:41:18;40.60;;;23.50;;
57561;SDS011;43397;51.530;5.974;2022-12-18T03:43:49;38.45;;;21.17;;
57561;SDS011;43397;51.530;5.974;2022-12-18T03:46:20;28.35;;;19.80;;
57561;SDS011;43397;51.530;5.974;2022-12-18T03:48:55;33.00;;;20.25;;
57561;SDS011;43397;51.530;5.974;2022-12-18T03:51:26;36.45;;;22.50;;
57561;SDS011;43397;51.530;5.974;2022-12-18T03:53:58;37.40;;;21.77;;
57561;SDS011;43397;51.530;5.974;2022-12-18T03:56:27;34.13;;;21.17;;
57561;SDS011;43397;51.530;5.974;2022-12-18T03:58:56;35.92;;;22.45;;
57561;SDS011;43397;51.530;5.974;2022-12-18T04:01:25;35.85;;;21.08;;
57561;SDS011;43397;51.530;5.974;2022-12-18T04:03:58;33.58;;;19.38;;
57561;SDS011;43397;51.530;5.974;2022-12-18T04:06:26;34.13;;;22.95;;
57561;SDS011;43397;51.530;5.974;2022-12-18T04:08:54;35.28;;;20.58;;
57561;SDS011;43397;51.530;5.974;2022-12-18T04:11:20;37.85;;;21.38;;
57561;SDS011;43397;51.530;5.974;2022-12-18T04:13:46;37.35;;;21.67;;
57561;SDS011;43397;51.530;5.974;2022-12-18T04:16:11;42.22;;;22.30;;
57561;SDS011;43397;51.530;5.974;2022-12-18T04:18:37;36.38;;;22.23;;
57561;SDS011;43397;51.530;5.974;2022-12-18T04:21:04;36.08;;;20.23;;
57561;SDS011;43397;51.530;5.974;2022-12-18T04:23:30;36.75;;;21.67;;
57561;SDS011;43397;51.530;5.974;2022-12-18T04:25:56;34.13;;;21.88;;
57561;SDS011;43397;51.530;5.974;2022-12-18T04:28:22;36.53;;;23.02;;
57561;SDS011;43397;51.530;5.974;2022-12-18T04:30:48;36.38;;;21.33;;
57561;SDS011;43397;51.530;5.974;2022-12-18T04:33:13;34.20;;;22.33;;
57561;SDS011;43397;51.530;5.974;2022-12-18T04:35:39;33.65;;;19.63;;
57561;SDS011;43397;51.530;5.974;2022-12-18T04:38:08;34.47;;;20.90;;
57561;SDS011;43397;51.530;5.974;2022-12-18T04:40:34;36.63;;;21.80;;
57561;SDS011;43397;51.530;5.974;2022-12-18T04:43:00;33.10;;;19.85;;
57561;SDS011;43397;51.530;5.974;2022-12-18T04:45:26;34.55;;;22.35;;
57561;SDS011;43397;51.530;5.974;2022-12-18T04:47:52;37.58;;;20.98;;
57561;SDS011;43397;51.530;5.974;2022-12-18T04:50:17;40.28;;;23.98;;
57561;SDS011;43397;51.530;5.974;2022-12-18T04:52:43;32.35;;;21.38;;
57561;SDS011;43397;51.530;5.974;2022-12-18T04:55:10;35.22;;;20.52;;
57561;SDS011;43397;51.530;5.974;2022-12-18T04:57:36;39.30;;;24.02;;
57561;SDS011;43397;51.530;5.974;2022-12-18T05:00:02;37.97;;;22.17;;
57561;SDS011;43397;51.530;5.974;2022-12-18T05:02:28;38.90;;;22.55;;
57561;SDS011;43397;51.530;5.974;2022-12-18T05:04:53;35.65;;;19.60;;
57561;SDS011;43397;51.530;5.974;2022-12-18T05:07:19;32.85;;;19.48;;
57561;SDS011;43397;51.530;5.974;2022-12-18T05:09:45;35.75;;;21.88;;
57561;SDS011;43397;51.530;5.974;2022-12-18T05:12:12;31.63;;;18.42;;
57561;SDS011;43397;51.530;5.974;2022-12-18T05:14:37;39.45;;;23.50;;
57561;SDS011;43397;51.530;5.974;2022-12-18T05:17:03;38.47;;;22.50;;
57561;SDS011;43397;51.530;5.974;2022-12-18T05:19:29;34.47;;;21.98;;
57561;SDS011;43397;51.530;5.974;2022-12-18T05:21:55;34.22;;;22.15;;
57561;SDS011;43397;51.530;5.974;2022-12-18T05:24:20;42.08;;;24.30;;
57561;SDS011;43397;51.530;5.974;2022-12-18T05:26:46;34.13;;;22.33;;
57561;SDS011;43397;51.530;5.974;2022-12-18T05:29:13;38.28;;;22.55;;
57561;SDS011;43397;51.530;5.974;2022-12-18T05:31:39;34.53;;;21.90;;
57561;SDS011;43397;51.530;5.974;2022-12-18T05:34:05;35.88;;;22.60;;
57561;SDS011;43397;51.530;5.974;2022-12-18T05:36:31;37.05;;;21.38;;
57561;SDS011;43397;51.530;5.974;2022-12-18T05:38:57;34.40;;;22.27;;
57561;SDS011;43397;51.530;5.974;2022-12-18T05:41:22;38.20;;;21.17;;
57561;SDS011;43397;51.530;5.974;2022-12-18T05:43:48;35.92;;;22.60;;
57561;SDS011;43397;51.530;5.974;2022-12-18T05:46:16;38.40;;;23.00;;
57561;SDS011;43397;51.530;5.974;2022-12-18T05:48:42;34.00;;;21.15;;
57561;SDS011;43397;51.530;5.974;2022-12-18T05:51:09;34.55;;;20.60;;
57561;SDS011;43397;51.530;5.974;2022-12-18T05:53:36;32.42;;;19.77;;
57561;SDS011;43397;51.530;5.974;2022-12-18T05:56:03;29.85;;;19.63;;
57561;SDS011;43397;51.530;5.974;2022-12-18T05:58:30;36.55;;;20.48;;
57561;SDS011;43397;51.530;5.974;2022-12-18T06:00:56;37.15;;;21.95;;
57561;SDS011;43397;51.530;5.974;2022-12-18T06:03:24;36.72;;;20.42;;
57561;SDS011;43397;51.530;5.974;2022-12-18T06:05:50;37.08;;;20.85;;
57561;SDS011;43397;51.530;5.974;2022-12-18T06:08:15;32.38;;;20.88;;
57561;SDS011;43397;51.530;5.974;2022-12-18T06:10:41;30.05;;;17.98;;
57561;SDS011;43397;51.530;5.974;2022-12-18T06:13:07;29.10;;;17.98;;
57561;SDS011;43397;51.530;5.974;2022-12-18T06:15:32;35.88;;;19.80;;
57561;SDS011;43397;51.530;5.974;2022-12-18T06:18:01;38.50;;;22.42;;
57561;SDS011;43397;51.530;5.974;2022-12-18T06:20:28;32.25;;;19.02;;
57561;SDS011;43397;51.530;5.974;2022-12-18T06:22:53;33.50;;;20.33;;
57561;SDS011;43397;51.530;5.974;2022-12-18T06:25:19;33.75;;;18.23;;
57561;SDS011;43397;51.530;5.974;2022-12-18T06:27:46;31.40;;;20.15;;
57561;SDS011;43397;51.530;5.974;2022-12-18T06:30:12;35.83;;;21.00;;
57561;SDS011;43397;51.530;5.974;2022-12-18T06:32:39;28.75;;;17.73;;
57561;SDS011;43397;51.530;5.974;2022-12-18T06:35:05;30.55;;;19.55;;
57561;SDS011;43397;51.530;5.974;2022-12-18T06:37:32;31.67;;;19.88;;
57561;SDS011;43397;51.530;5.974;2022-12-18T06:39:58;31.58;;;18.60;;
57561;SDS011;43397;51.530;5.974;2022-12-18T06:42:24;34.60;;;19.05;;
57561;SDS011;43397;51.530;5.974;2022-12-18T06:44:50;30.73;;;18.45;;
57561;SDS011;43397;51.530;5.974;2022-12-18T06:47:16;30.95;;;20.65;;
57561;SDS011;43397;51.530;5.974;2022-12-18T06:49:42;34.53;;;21.27;;
57561;SDS011;43397;51.530;5.974;2022-12-18T06:52:08;35.20;;;19.83;;
57561;SDS011;43397;51.530;5.974;2022-12-18T06:54:35;26.48;;;18.52;;
57561;SDS011;43397;51.530;5.974;2022-12-18T06:57:01;29.52;;;19.02;;
57561;SDS011;43397;51.530;5.974;2022-12-18T06:59:26;29.27;;;18.00;;
57561;SDS011;43397;51.530;5.974;2022-12-18T07:01:52;31.58;;;18.98;;
57561;SDS011;43397;51.530;5.974;2022-12-18T07:04:18;33.45;;;19.63;;
57561;SDS011;43397;51.530;5.974;2022-12-18T07:06:43;29.60;;;20.65;;
57561;SDS011;43397;51.530;5.974;2022-12-18T07:09:09;36.13;;;21.73;;
57561;SDS011;43397;51.530;5.974;2022-12-18T07:11:36;31.73;;;18.88;;
57561;SDS011;43397;51.530;5.974;2022-12-18T07:14:02;28.30;;;17.73;;
57561;SDS011;43397;51.530;5.974;2022-12-18T07:16:27;29.77;;;20.27;;
57561;SDS011;43397;51.530;5.974;2022-12-18T07:18:54;31.08;;;19.15;;
57561;SDS011;43397;51.530;5.974;2022-12-18T07:21:21;33.47;;;20.23;;
57561;SDS011;43397;51.530;5.974;2022-12-18T07:23:47;33.10;;;19.98;;
57561;SDS011;43397;51.530;5.974;2022-12-18T07:26:14;32.70;;;19.75;;
57561;SDS011;43397;51.530;5.974;2022-12-18T07:28:42;32.65;;;19.25;;
57561;SDS011;43397;51.530;5.974;2022-12-18T07:31:08;28.05;;;19.23;;
57561;SDS011;43397;51.530;5.974;2022-12-18T07:33:35;32.60;;;18.75;;
57561;SDS011;43397;51.530;5.974;2022-12-18T07:36:02;29.50;;;17.50;;
57561;SDS011;43397;51.530;5.974;2022-12-18T07:38:29;32.08;;;19.27;;
57561;SDS011;43397;51.530;5.974;2022-12-18T07:40:59;31.70;;;18.58;;
57561;SDS011;43397;51.530;5.974;2022-12-18T07:43:25;33.53;;;19.00;;
57561;SDS011;43397;51.530;5.974;2022-12-18T07:45:52;31.00;;;19.02;;
57561;SDS011;43397;51.530;5.974;2022-12-18T07:48:18;35.60;;;20.65;;
57561;SDS011;43397;51.530;5.974;2022-12-18T07:50:43;31.20;;;18.20;;
57561;SDS011;43397;51.530;5.974;2022-12-18T07:53:09;35.42;;;20.02;;
57561;SDS011;43397;51.530;5.974;2022-12-18T07:55:35;31.08;;;21.10;;
57561;SDS011;43397;51.530;5.974;2022-12-18T07:58:01;37.83;;;20.67;;
57561;SDS011;43397;51.530;5.974;2022-12-18T08:00:27;27.08;;;19.42;;
57561;SDS011;43397;51.530;5.974;2022-12-18T08:02:54;31.02;;;17.67;;
57561;SDS011;43397;51.530;5.974;2022-12-18T08:05:20;28.05;;;18.80;;
57561;SDS011;43397;51.530;5.974;2022-12-18T08:07:45;32.40;;;20.05;;
57561;SDS011;43397;51.530;5.974;2022-12-18T08:10:11;31.77;;;19.92;;
57561;SDS011;43397;51.530;5.974;2022-12-18T08:12:38;29.40;;;18.88;;
57561;SDS011;43397;51.530;5.974;2022-12-18T08:15:04;31.67;;;18.40;;
57561;SDS011;43397;51.530;5.974;2022-12-18T08:17:30;31.67;;;19.50;;
57561;SDS011;43397;51.530;5.974;2022-12-18T08:19:57;34.45;;;19.92;;
57561;SDS011;43397;51.530;5.974;2022-12-18T08:22:23;29.40;;;17.55;;
57561;SDS011;43397;51.530;5.974;2022-12-18T08:24:49;29.70;;;18.83;;
57561;SDS011;43397;51.530;5.974;2022-12-18T08:27:14;30.73;;;19.05;;
57561;SDS011;43397;51.530;5.974;2022-12-18T08:29:40;25.45;;;15.77;;
57561;SDS011;43397;51.530;5.974;2022-12-18T08:32:07;28.50;;;18.25;;
57561;SDS011;43397;51.530;5.974;2022-12-18T08:34:33;31.92;;;18.42;;
57561;SDS011;43397;51.530;5.974;2022-12-18T08:37:00;29.50;;;17.10;;
57561;SDS011;43397;51.530;5.974;2022-12-18T08:39:26;28.50;;;15.98;;
57561;SDS011;43397;51.530;5.974;2022-12-18T08:41:51;32.13;;;20.02;;
57561;SDS011;43397;51.530;5.974;2022-12-18T08:44:17;32.65;;;17.52;;
57561;SDS011;43397;51.530;5.974;2022-12-18T08:46:43;30.02;;;18.73;;
57561;SDS011;43397;51.530;5.974;2022-12-18T08:49:09;31.38;;;18.38;;
57561;SDS011;43397;51.530;5.974;2022-12-18T08:51:36;28.92;;;17.05;;
57561;SDS011;43397;51.530;5.974;2022-12-18T08:54:04;27.40;;;16.70;;
57561;SDS011;43397;51.530;5.974;2022-12-18T08:56:30;26.55;;;16.67;;
57561;SDS011;43397;51.530;5.974;2022-12-18T08:58:56;26.05;;;15.88;;
57561;SDS011;43397;51.530;5.974;2022-12-18T09:01:22;27.77;;;17.55;;
57561;SDS011;43397;51.530;5.974;2022-12-18T09:03:49;34.70;;;18.60;;
57561;SDS011;43397;51.530;5.974;2022-12-18T09:06:16;31.75;;;18.60;;
57561;SDS011;43397;51.530;5.974;2022-12-18T09:08:42;30.98;;;18.83;;
57561;SDS011;43397;51.530;5.974;2022-12-18T09:11:12;29.50;;;17.42;;
57561;SDS011;43397;51.530;5.974;2022-12-18T09:13:40;23.15;;;15.68;;
57561;SDS011;43397;51.530;5.974;2022-12-18T09:16:06;28.73;;;17.15;;
57561;SDS011;43397;51.530;5.974;2022-12-18T09:18:32;25.88;;;14.63;;
57561;SDS011;43397;51.530;5.974;2022-12-18T09:20:57;26.05;;;18.38;;
57561;SDS011;43397;51.530;5.974;2022-12-18T09:23:23;28.30;;;15.35;;
57561;SDS011;43397;51.530;5.974;2022-12-18T09:25:49;29.55;;;17.65;;
57561;SDS011;43397;51.530;5.974;2022-12-18T09:28:17;29.80;;;17.52;;
57561;SDS011;43397;51.530;5.974;2022-12-18T09:30:44;27.42;;;18.80;;
57561;SDS011;43397;51.530;5.974;2022-12-18T09:33:11;26.65;;;16.58;;
57561;SDS011;43397;51.530;5.974;2022-12-18T09:35:37;25.98;;;14.35;;
57561;SDS011;43397;51.530;5.974;2022-12-18T09:38:04;30.33;;;16.48;;
57561;SDS011;43397;51.530;5.974;2022-12-18T09:40:32;30.85;;;17.92;;
57561;SDS011;43397;51.530;5.974;2022-12-18T09:43:00;22.67;;;15.70;;
57561;SDS011;43397;51.530;5.974;2022-12-18T09:45:31;25.50;;;14.40;;
57561;SDS011;43397;51.530;5.974;2022-12-18T09:48:04;24.90;;;15.23;;
57561;SDS011;43397;51.530;5.974;2022-12-18T09:50:31;25.25;;;16.65;;
57561;SDS011;43397;51.530;5.974;2022-12-18T09:53:02;28.10;;;16.30;;
57561;SDS011;43397;51.530;5.974;2022-12-18T09:55:33;27.10;;;16.95;;
57561;SDS011;43397;51.530;5.974;2022-12-18T09:58:02;27.60;;;16.45;;
57561;SDS011;43397;51.530;5.974;2022-12-18T10:00:34;22.80;;;14.27;;
57561;SDS011;43397;51.530;5.974;2022-12-18T10:03:01;23.88;;;16.35;;
57561;SDS011;43397;51.530;5.974;2022-12-18T10:05:35;27.15;;;15.43;;
57561;SDS011;43397;51.530;5.974;2022-12-18T10:08:05;20.73;;;14.82;;
57561;SDS011;43397;51.530;5.974;2022-12-18T10:10:40;22.75;;;15.50;;
57561;SDS011;43397;51.530;5.974;2022-12-18T10:13:15;26.48;;;14.60;;
57561;SDS011;43397;51.530;5.974;2022-12-18T10:15:54;24.38;;;16.63;;
57561;SDS011;43397;51.530;5.974;2022-12-18T10:18:33;21.75;;;14.68;;
57561;SDS011;43397;51.530;5.974;2022-12-18T10:21:15;20.70;;;11.05;;
57561;SDS011;43397;51.530;5.974;2022-12-18T10:23:46;26.50;;;17.52;;
57561;SDS011;43397;51.530;5.974;2022-12-18T10:26:18;25.08;;;16.50;;
57561;SDS011;43397;51.530;5.974;2022-12-18T10:28:44;27.77;;;16.63;;
57561;SDS011;43397;51.530;5.974;2022-12-18T10:31:14;23.67;;;16.00;;
57561;SDS011;43397;51.530;5.974;2022-12-18T10:33:42;27.52;;;15.68;;
57561;SDS011;43397;51.530;5.974;2022-12-18T10:36:08;28.10;;;16.45;;
57561;SDS011;43397;51.530;5.974;2022-12-18T10:38:34;29.17;;;18.42;;
57561;SDS011;43397;51.530;5.974;2022-12-18T10:41:01;24.90;;;15.93;;
57561;SDS011;43397;51.530;5.974;2022-12-18T10:43:28;25.42;;;16.13;;
57561;SDS011;43397;51.530;5.974;2022-12-18T10:46:02;27.83;;;17.23;;
57561;SDS011;43397;51.530;5.974;2022-12-18T10:48:47;26.35;;;18.00;;
57561;SDS011;43397;51.530;5.974;2022-12-18T10:51:20;24.63;;;15.55;;
57561;SDS011;43397;51.530;5.974;2022-12-18T10:53:51;27.70;;;16.23;;
57561;SDS011;43397;51.530;5.974;2022-12-18T10:56:19;27.52;;;17.67;;
57561;SDS011;43397;51.530;5.974;2022-12-18T10:58:45;25.98;;;17.48;;
57561;SDS011;43397;51.530;5.974;2022-12-18T11:01:22;26.60;;;17.02;;
57561;SDS011;43397;51.530;5.974;2022-12-18T11:03:58;27.20;;;17.27;;
57561;SDS011;43397;51.530;5.974;2022-12-18T11:06:25;24.80;;;15.57;;
57561;SDS011;43397;51.530;5.974;2022-12-18T11:08:57;28.20;;;16.92;;
57561;SDS011;43397;51.530;5.974;2022-12-18T11:11:24;27.77;;;16.65;;
57561;SDS011;43397;51.530;5.974;2022-12-18T11:13:53;23.80;;;15.43;;
57561;SDS011;43397;51.530;5.974;2022-12-18T11:16:25;22.92;;;15.80;;
57561;SDS011;43397;51.530;5.974;2022-12-18T11:18:51;24.08;;;14.88;;
57561;SDS011;43397;51.530;5.974;2022-12-18T11:21:17;21.83;;;12.73;;
57561;SDS011;43397;51.530;5.974;2022-12-18T11:23:45;22.83;;;15.35;;
57561;SDS011;43397;51.530;5.974;2022-12-18T11:26:13;27.98;;;17.30;;
57561;SDS011;43397;51.530;5.974;2022-12-18T11:28:40;25.88;;;14.55;;
57561;SDS011;43397;51.530;5.974;2022-12-18T11:31:15;29.05;;;17.77;;
57561;SDS011;43397;51.530;5.974;2022-12-18T11:33:50;28.60;;;16.97;;
57561;SDS011;43397;51.530;5.974;2022-12-18T11:36:21;28.40;;;15.05;;
57561;SDS011;43397;51.530;5.974;2022-12-18T11:38:48;28.40;;;14.63;;
57561;SDS011;43397;51.530;5.974;2022-12-18T11:41:19;26.48;;;16.63;;
57561;SDS011;43397;51.530;5.974;2022-12-18T11:43:50;28.13;;;16.52;;
57561;SDS011;43397;51.530;5.974;2022-12-18T11:46:23;29.45;;;16.83;;
57561;SDS011;43397;51.530;5.974;2022-12-18T11:48:56;27.02;;;16.48;;
57561;SDS011;43397;51.530;5.974;2022-12-18T11:51:27;27.83;;;16.17;;
57561;SDS011;43397;51.530;5.974;2022-12-18T11:53:58;28.80;;;16.42;;
57561;SDS011;43397;51.530;5.974;2022-12-18T11:56:27;26.42;;;16.40;;
57561;SDS011;43397;51.530;5.974;2022-12-18T11:58:59;22.80;;;14.65;;
57561;SDS011;43397;51.530;5.974;2022-12-18T12:01:37;27.05;;;14.80;;
57561;SDS011;43397;51.530;5.974;2022-12-18T12:04:22;27.80;;;16.50;;
57561;SDS011;43397;51.530;5.974;2022-12-18T12:07:12;27.33;;;17.25;;
57561;SDS011;43397;51.530;5.974;2022-12-18T12:09:48;24.05;;;15.10;;
57561;SDS011;43397;51.530;5.974;2022-12-18T12:12:26;25.80;;;15.32;;
57561;SDS011;43397;51.530;5.974;2022-12-18T12:15:03;25.13;;;16.58;;
57561;SDS011;43397;51.530;5.974;2022-12-18T12:17:40;21.95;;;13.27;;
57561;SDS011;43397;51.530;5.974;2022-12-18T12:20:13;24.77;;;15.18;;
57561;SDS011;43397;51.530;5.974;2022-12-18T12:22:46;27.63;;;16.88;;
57561;SDS011;43397;51.530;5.974;2022-12-18T12:25:23;25.80;;;15.95;;
57561;SDS011;43397;51.530;5.974;2022-12-18T12:27:59;31.40;;;18.70;;
57561;SDS011;43397;51.530;5.974;2022-12-18T12:30:35;30.92;;;17.95;;
57561;SDS011;43397;51.530;5.974;2022-12-18T12:33:13;26.95;;;15.93;;
57561;SDS011;43397;51.530;5.974;2022-12-18T12:35:51;27.95;;;15.35;;
57561;SDS011;43397;51.530;5.974;2022-12-18T12:38:27;26.58;;;16.45;;
57561;SDS011;43397;51.530;5.974;2022-12-18T12:40:57;27.38;;;17.20;;
57561;SDS011;43397;51.530;5.974;2022-12-18T12:43:28;20.58;;;12.45;;
57561;SDS011;43397;51.530;5.974;2022-12-18T12:46:02;29.92;;;18.15;;
57561;SDS011;43397;51.530;5.974;2022-12-18T12:48:34;24.38;;;15.57;;
57561;SDS011;43397;51.530;5.974;2022-12-18T12:51:07;28.15;;;16.67;;
57561;SDS011;43397;51.530;5.974;2022-12-18T12:53:36;22.67;;;15.25;;
57561;SDS011;43397;51.530;5.974;2022-12-18T12:56:03;28.02;;;17.23;;
57561;SDS011;43397;51.530;5.974;2022-12-18T12:58:32;21.60;;;13.70;;
57561;SDS011;43397;51.530;5.974;2022-12-18T13:01:11;24.50;;;15.98;;
57561;SDS011;43397;51.530;5.974;2022-12-18T13:03:47;24.02;;;14.68;;
57561;SDS011;43397;51.530;5.974;2022-12-18T13:06:23;27.73;;;15.75;;
57561;SDS011;43397;51.530;5.974;2022-12-18T13:08:59;27.35;;;17.58;;
57561;SDS011;43397;51.530;5.974;2022-12-18T13:11:34;24.15;;;15.68;;
57561;SDS011;43397;51.530;5.974;2022-12-18T13:14:01;32.33;;;17.15;;
57561;SDS011;43397;51.530;5.974;2022-12-18T13:16:27;28.17;;;16.48;;
57561;SDS011;43397;51.530;5.974;2022-12-18T13:18:53;28.50;;;17.30;;
57561;SDS011;43397;51.530;5.974;2022-12-18T13:21:23;23.40;;;14.82;;
57561;SDS011;43397;51.530;5.974;2022-12-18T13:23:50;25.25;;;16.15;;
57561;SDS011;43397;51.530;5.974;2022-12-18T13:26:32;29.08;;;17.08;;
57561;SDS011;43397;51.530;5.974;2022-12-18T13:29:00;23.92;;;17.05;;
57561;SDS011;43397;51.530;5.974;2022-12-18T13:34:29;27.77;;;17.10;;
57561;SDS011;43397;51.530;5.974;2022-12-18T13:37:32;31.20;;;17.55;;
57561;SDS011;43397;51.530;5.974;2022-12-18T13:40:01;28.27;;;17.75;;
57561;SDS011;43397;51.530;5.974;2022-12-18T13:42:37;28.05;;;16.60;;
57561;SDS011;43397;51.530;5.974;2022-12-18T13:45:10;27.20;;;16.60;;
57561;SDS011;43397;51.530;5.974;2022-12-18T13:48:11;27.05;;;17.63;;
57561;SDS011;43397;51.530;5.974;2022-12-18T13:50:41;28.52;;;17.42;;
57561;SDS011;43397;51.530;5.974;2022-12-18T13:53:13;29.77;;;18.10;;
57561;SDS011;43397;51.530;5.974;2022-12-18T13:55:45;27.17;;;16.83;;
57561;SDS011;43397;51.530;5.974;2022-12-18T13:58:11;26.60;;;17.73;;
57561;SDS011;43397;51.530;5.974;2022-12-18T14:00:40;28.20;;;18.83;;
57561;SDS011;43397;51.530;5.974;2022-12-18T14:03:15;28.55;;;18.50;;
57561;SDS011;43397;51.530;5.974;2022-12-18T14:05:43;27.70;;;17.45;;
57561;SDS011;43397;51.530;5.974;2022-12-18T14:08:10;26.00;;;16.15;;
57561;SDS011;43397;51.530;5.974;2022-12-18T14:10:39;28.20;;;18.15;;
57561;SDS011;43397;51.530;5.974;2022-12-18T14:13:06;25.58;;;16.48;;
57561;SDS011;43397;51.530;5.974;2022-12-18T14:15:35;26.73;;;15.70;;
57561;SDS011;43397;51.530;5.974;2022-12-18T14:18:09;29.38;;;17.88;;
57561;SDS011;43397;51.530;5.974;2022-12-18T14:20:44;28.58;;;17.13;;
57561;SDS011;43397;51.530;5.974;2022-12-18T14:25:54;28.70;;;18.33;;
57561;SDS011;43397;51.530;5.974;2022-12-18T14:28:20;28.65;;;17.73;;
57561;SDS011;43397;51.530;5.974;2022-12-18T14:30:46;21.55;;;14.93;;
57561;SDS011;43397;51.530;5.974;2022-12-18T14:33:12;28.20;;;16.52;;
57561;SDS011;43397;51.530;5.974;2022-12-18T14:35:40;26.85;;;17.02;;